Time;durP1;ratioP1;P1;durP2;ratioP2;P2;SDS_P1;SDS_P2;PMS_P1;PMS_P2;Temp;Humidity;BMP_temperature;BMP_pressure;BME280_temperature;BME280_humidity;BME280_pressure;Samples;Min_cycle;Max_cycle;Signal;HPM_P1;HPM_P2
2023/09/20 00:00:24;;;;;;;6.05;2.17;;;;;;;18.43;63.55;99876.56;7553287;33;40150;-80
2023/09/20 00:04:47;;;;;;;5.78;2.42;;;;;;;18.39;63.85;99881.91;7541332;33;40566;-80
2023/09/20 00:09:04;;;;;;;;;;;;;;;18.57;63.11;99877.22;7540825;33;38683;-79
2023/09/20 00:13:21;;;;;;;6.43;2.33;;;;;;;18.57;63.73;99888.25;7553053;33;37713;-80
2023/09/20 00:17:37;;;;;;;3.80;2.40;;;;;;;18.46;63.86;99889.72;7525652;33;39457;-80
2023/09/20 00:21:54;;;;;;;5.00;2.33;;;;;;;18.38;64.36;99894.91;7527047;33;39993;-79
2023/09/20 00:26:12;;;;;;;3.75;2.10;;;;;;;18.49;63.84;99892.66;7526922;33;38159;-80
2023/09/20 00:30:28;;;;;;;2.35;1.70;;;;;;;18.36;63.94;99888.88;7526927;33;38039;-80
2023/09/20 00:34:44;;;;;;;3.08;2.25;;;;;;;18.25;64.02;99893.09;7526936;33;39377;-79
2023/09/20 00:39:01;;;;;;;4.70;2.10;;;;;;;18.29;63.85;99888.53;7526647;33;40630;-79
2023/09/20 00:43:27;;;;;;;5.40;2.33;;;;;;;18.52;63.23;99885.66;7526513;33;37912;-80
2023/09/20 00:47:47;;;;;;;3.92;2.50;;;;;;;18.62;62.71;99890.88;7531984;33;38185;-81
2023/09/20 00:52:06;;;;;;;4.07;1.98;;;;;;;18.67;62.77;99892.66;7552448;33;39425;-80
2023/09/20 00:56:23;;;;;;;3.40;2.40;;;;;;;18.52;62.95;99883.72;7555770;33;38986;-80
2023/09/20 01:00:40;;;;;;;7.30;2.42;;;;;;;18.64;62.67;99885.81;7555608;33;38695;-80
2023/09/20 01:04:57;;;;;;;3.37;2.30;;;;;;;18.63;62.52;99883.41;7555415;33;36903;-79
2023/09/20 01:09:13;;;;;;;3.65;2.40;;;;;;;18.39;63.25;99887.44;7554839;33;38649;-79
2023/09/20 01:13:30;;;;;;;2.37;2.00;;;;;;;18.34;63.64;99884.81;7555499;33;40750;-79
2023/09/20 01:17:58;;;;;;;5.12;2.65;;;;;;;18.34;63.80;99866.31;7555248;33;39147;-79
2023/09/20 01:22:15;;;;;;;5.93;2.53;;;;;;;18.21;64.03;99875.53;7554872;33;37658;-79
2023/09/20 01:26:33;;;;;;;4.87;2.53;;;;;;;18.15;64.52;99877.63;7555390;33;39523;-79
2023/09/20 01:30:50;;;;;;;3.12;2.08;;;;;;;18.25;63.72;99879.28;7555219;33;40009;-79
2023/09/20 01:35:07;;;;;;;4.37;2.70;;;;;;;18.28;63.50;99875.06;7555252;33;38781;-79
2023/09/20 01:39:24;;;;;;;3.85;2.35;;;;;;;18.10;64.20;99874.22;7555123;33;37896;-79
2023/09/20 01:43:43;;;;;;;4.80;2.87;;;;;;;18.18;63.73;99879.75;7555182;33;39372;-79
2023/09/20 01:48:06;;;;;;;8.43;2.75;;;;;;;17.72;65.50;99881.00;7555137;33;38986;-79
2023/09/20 01:52:24;;;;;;;4.68;2.67;;;;;;;17.84;64.91;99881.22;7554563;33;37717;-79
2023/09/20 01:56:41;;;;;;;4.93;2.40;;;;;;;17.90;64.42;99890.22;7555005;33;36930;-79
2023/09/20 02:00:57;;;;;;;4.47;2.60;;;;;;;18.01;64.08;99894.31;7554696;33;40074;-79
2023/09/20 02:05:14;;;;;;;4.10;2.85;;;;;;;18.07;63.83;99891.41;7554520;33;41012;-79
2023/09/20 02:09:30;;;;;;;7.22;3.35;;;;;;;18.11;63.96;99897.91;7554380;33;38630;-79
2023/09/20 02:13:47;;;;;;;4.22;2.65;;;;;;;17.98;64.66;99892.19;7554804;33;37388;-79
2023/09/20 02:18:05;;;;;;;5.60;3.20;;;;;;;17.87;65.02;99885.34;7554293;33;39454;-78
2023/09/20 02:22:22;;;;;;;5.60;3.00;;;;;;;17.87;64.53;99888.09;7554594;33;40179;-79
2023/09/20 02:26:38;;;;;;;7.35;3.37;;;;;;;17.77;65.02;99893.84;7554363;33;38042;-79
2023/09/20 02:30:55;;;;;;;5.43;3.08;;;;;;;17.94;63.58;99888.44;7554698;33;37740;-78
2023/09/20 02:35:12;;;;;;;5.70;3.05;;;;;;;17.83;63.87;99881.53;7554659;33;39581;-79
2023/09/20 02:39:28;;;;;;;5.85;3.17;;;;;;;17.83;63.78;99881.53;7554485;33;40786;-78
2023/09/20 02:43:45;;;;;;;6.43;2.72;;;;;;;17.73;64.11;99882.66;7554541;33;37779;-76
2023/09/20 02:48:06;;;;;;;6.50;3.33;;;;;;;17.71;64.46;99886.84;7554436;33;37166;-79
2023/09/20 02:52:24;;;;;;;5.47;2.85;;;;;;;17.70;65.34;99896.25;7554062;33;39504;-79
2023/09/20 02:56:40;;;;;;;5.30;2.72;;;;;;;17.71;65.13;99889.59;7554033;33;39920;-79
2023/09/20 03:00:57;;;;;;;6.95;2.70;;;;;;;17.83;64.17;99881.53;7554276;33;38627;-78
2023/09/20 03:05:18;;;;;;;3.28;2.70;;;;;;;17.71;64.12;99881.34;7554156;33;37238;-79
2023/09/20 03:09:36;;;;;;;5.07;3.20;;;;;;;17.96;63.69;99877.09;7554325;33;39203;-78
2023/09/20 03:13:54;;;;;;;5.78;2.90;;;;;;;17.94;63.82;99882.94;7553233;33;40862;-78
2023/09/20 03:18:13;;;;;;;8.90;3.12;;;;;;;18.05;63.58;99882.62;7553963;33;37886;-78
2023/09/20 03:22:29;;;;;;;4.65;2.70;;;;;;;18.15;63.06;99883.16;7553996;33;37150;-79
2023/09/20 03:26:46;;;;;;;4.22;2.40;;;;;;;17.99;63.51;99890.25;7553908;33;40100;-79
2023/09/20 03:31:05;;;;;;;9.63;3.20;;;;;;;17.91;63.88;99889.06;7553259;33;40008;-78
2023/09/20 03:35:21;;;;;;;3.95;2.87;;;;;;;17.71;64.97;99895.13;7553692;33;37859;-78
2023/09/20 03:39:41;;;;;;;6.45;2.95;;;;;;;17.61;65.34;99897.03;7553669;33;37359;-78
2023/09/20 03:43:57;;;;;;;6.82;3.30;;;;;;;17.62;65.27;99901.37;7553505;33;39366;-79
2023/09/20 03:48:13;;;;;;;6.15;3.03;;;;;;;17.42;65.81;99900.00;7553514;33;40897;-78
2023/09/20 03:52:30;;;;;;;6.97;2.95;;;;;;;17.43;65.34;99890.59;7553211;33;38705;-79
2023/09/20 03:56:46;;;;;;;7.40;3.03;;;;;;;17.42;65.20;99893.69;7553325;33;37841;-79
2023/09/20 04:01:03;;;;;;;6.00;3.08;;;;;;;17.61;64.57;99883.25;7552932;33;39922;-78
2023/09/20 04:05:20;;;;;;;4.60;2.58;;;;;;;17.51;64.84;99885.47;7552811;33;40874;-78
2023/09/20 04:09:56;;;;;;;5.30;2.37;;;;;;;17.39;65.21;99877.78;7552444;33;38190;-79
2023/09/20 04:14:12;;;;;;;2.35;1.80;;;;;;;17.32;65.46;99882.94;7552898;33;37214;-79
2023/09/20 04:18:29;;;;;;;8.73;2.55;;;;;;;17.49;64.92;99885.78;7552237;33;39182;-78
2023/09/20 04:22:45;;;;;;;2.83;1.80;;;;;;;17.31;65.39;99890.34;7552557;33;40220;-79
2023/09/20 04:27:02;;;;;;;2.28;1.77;;;;;;;17.44;64.92;99888.66;7554640;33;38015;-79
2023/09/20 04:31:19;;;;;;;3.67;1.80;;;;;;;17.34;65.16;99891.69;7556049;33;37644;-79
2023/09/20 04:35:36;;;;;;;8.63;2.55;;;;;;;17.39;64.95;99897.06;7555823;33;40260;-79
2023/09/20 04:39:53;;;;;;;3.42;2.55;;;;;;;17.17;66.17;99904.19;7555868;33;40849;-79
2023/09/20 04:44:09;;;;;;;8.88;3.00;;;;;;;17.37;65.35;99907.59;7555701;33;37901;-78
2023/09/20 04:48:25;;;;;;;4.15;2.78;;;;;;;17.29;65.69;99911.09;7555802;33;37156;-79
2023/09/20 04:52:43;;;;;;;3.78;2.50;;;;;;;17.63;64.85;99914.06;7555802;33;39755;-78
2023/09/20 04:56:59;;;;;;;4.22;2.40;;;;;;;17.30;66.17;99919.06;7555908;33;39937;-78
2023/09/20 05:01:16;;;;;;;3.37;2.47;;;;;;;17.49;65.92;99918.84;7555249;33;37969;-78
2023/09/20 05:05:32;;;;;;;4.85;2.60;;;;;;;17.53;65.99;99922.59;7555101;33;37321;-79
2023/09/20 05:09:50;;;;;;;5.32;2.87;;;;;;;17.57;66.28;99923.56;7555608;33;39444;-78
2023/09/20 05:14:06;;;;;;;5.12;2.70;;;;;;;17.73;65.98;99924.00;7555527;33;40805;-79
2023/09/20 05:18:23;;;;;;;5.05;3.10;;;;;;;17.59;66.61;99935.13;7555577;33;37673;-79
2023/09/20 05:22:40;;;;;;;5.55;3.03;;;;;;;17.38;67.43;99936.75;7555445;33;37157;-78
2023/09/20 05:26:57;;;;;;;4.45;2.80;;;;;;;17.67;66.64;99932.72;7555389;33;39086;-79
2023/09/20 05:31:15;;;;;;;3.40;2.33;;;;;;;17.82;66.53;99924.84;7554997;33;40800;-79
2023/09/20 05:35:32;;;;;;;3.85;2.62;;;;;;;17.82;66.60;99924.06;7554904;33;37970;-79
2023/09/20 05:39:49;;;;;;;3.65;2.50;;;;;;;17.99;66.13;99926.13;7554400;33;37066;-78
2023/09/20 05:44:06;;;;;;;4.57;2.70;;;;;;;18.02;66.02;99926.28;7555151;33;40244;-71
2023/09/20 05:48:22;;;;;;;3.35;2.17;;;;;;;18.19;67.04;99931.03;7555120;33;39983;-69
2023/09/20 05:52:41;;;;;;;11.55;5.65;;;;;;;18.57;66.46;99943.47;7554991;33;38516;-70
2023/09/20 05:56:59;;;;;;;7.10;4.60;;;;;;;18.28;65.25;99941.28;7555019;33;37914;-70
2023/09/20 06:01:17;;;;;;;8.15;4.53;;;;;;;18.47;64.96;99932.75;7553550;33;39492;-69
2023/09/20 06:05:37;;;;;;;8.68;4.50;;;;;;;18.49;64.24;99941.50;7551589;33;40262;-79
2023/09/20 06:09:54;;;;;;;10.60;5.03;;;;;;;18.11;65.06;99945.63;7554000;33;38792;-79
2023/09/20 06:14:10;;;;;;;5.57;3.00;;;;;;;18.44;64.39;99941.66;7554717;33;37865;-79
2023/09/20 06:18:26;;;;;;;6.10;2.72;;;;;;;18.46;65.26;99951.25;7554528;33;40106;-79
2023/09/20 06:22:43;;;;;;;4.85;2.75;;;;;;;18.65;64.53;99956.50;7554453;33;38241;-79
2023/09/20 06:27:00;;;;;;;6.43;3.60;;;;;;;18.77;64.76;99956.66;7553968;33;38583;-79
2023/09/20 06:31:18;;;;;;;11.77;5.37;;;;;;;18.71;65.48;99960.75;7554139;33;37313;-81
2023/09/20 06:35:41;;;;;;;10.60;5.03;;;;;;;18.89;65.47;99963.56;7554720;33;38304;-73
2023/09/20 06:39:57;;;;;;;7.70;3.58;;;;;;;19.18;64.52;99962.91;7553460;33;40882;-80
2023/09/20 06:44:14;;;;;;;5.30;2.78;;;;;;;19.41;64.26;99958.00;7554375;33;38006;-81
2023/09/20 06:48:30;;;;;;;3.40;2.20;;;;;;;19.74;63.86;99960.25;7552864;33;37889;-80
2023/09/20 06:52:47;;;;;;;4.82;2.30;;;;;;;19.61;62.54;99961.22;7553375;33;39885;-80
2023/09/20 06:57:04;;;;;;;2.42;1.75;;;;;;;20.10;61.75;99961.78;7553826;33;40025;-79
2023/09/20 07:01:25;;;;;;;8.88;3.10;;;;;;;19.94;62.35;99963.44;7554270;33;38038;-79
2023/09/20 07:05:41;;;;;;;10.23;3.05;;;;;;;20.01;62.32;99972.06;7553910;33;37757;-80
2023/09/20 07:09:58;;;;;;;7.82;2.70;;;;;;;19.82;62.70;99967.72;7554209;33;39501;-81
2023/09/20 07:14:20;;;;;;;5.03;2.58;;;;;;;19.94;62.62;99975.34;7551716;33;40017;-80
2023/09/20 07:18:37;;;;;;;11.17;2.63;;;;;;;20.27;62.16;99972.78;7552794;33;38596;-80
2023/09/20 07:22:53;;;;;;;6.30;2.83;;;;;;;20.37;62.60;99979.91;7553901;33;37111;-79
2023/09/20 07:27:10;;;;;;;3.47;1.90;;;;;;;20.40;62.00;99981.19;7554036;33;39706;-80
2023/09/20 07:31:26;;;;;;;4.97;2.10;;;;;;;20.61;61.33;99989.53;7553854;33;39952;-79
2023/09/20 07:35:52;;;;;;;4.93;1.60;;;;;;;21.02;60.48;99985.22;7553871;33;37602;-79
2023/09/20 07:40:10;;;;;;;3.28;1.40;;;;;;;21.34;59.19;99983.66;7553849;33;36806;-80
2023/09/20 07:44:31;;;;;;;4.50;1.60;;;;;;;21.74;57.48;99980.38;7553546;33;39384;-80
2023/09/20 07:48:48;;;;;;;3.40;1.55;;;;;;;22.00;56.03;99979.28;7553544;33;40058;-81
2023/09/20 07:53:06;;;;;;;3.03;1.75;;;;;;;21.10;58.50;99978.81;7553217;33;38849;-80
2023/09/20 07:57:23;;;;;;;6.68;1.83;;;;;;;21.74;58.27;99969.28;7553534;33;37088;-80
2023/09/20 08:01:41;;;;;;;2.47;1.50;;;;;;;21.91;56.78;99968.28;7555022;33;39548;-80
2023/09/20 08:05:58;;;;;;;2.25;1.67;;;;;;;21.89;56.69;99976.13;7556226;33;39923;-80
2023/09/20 08:10:15;;;;;;;3.25;1.30;;;;;;;22.00;55.32;99964.59;7556297;33;38439;-79
2023/09/20 08:14:31;;;;;;;3.42;1.62;;;;;;;22.58;54.21;99964.53;7556297;33;37047;-79
2023/09/20 09:00:30;;;;;;;3.97;1.30;;;;;;;24.65;42.80;99949.16;7555771;33;39871;-80
2023/09/20 09:04:53;;;;;;;4.22;1.25;;;;;;;25.19;42.60;99944.72;7555396;33;38811;-80
2023/09/20 09:09:10;;;;;;;1.42;1.00;;;;;;;25.44;42.12;99950.03;7555790;33;37305;-80
2023/09/20 09:13:30;;;;;;;1.40;1.12;;;;;;;24.67;42.37;99946.81;7553876;33;40374;-80
2023/09/20 09:17:47;;;;;;;3.03;1.30;;;;;;;25.31;42.87;99943.81;7555422;33;40752;-80
2023/09/20 09:22:05;;;;;;;1.67;1.20;;;;;;;25.83;40.82;99927.63;7555233;33;38025;-81
2023/09/20 09:26:23;;;;;;;2.05;1.10;;;;;;;26.28;40.26;99920.44;7555407;33;38055;-81
2023/09/20 09:30:42;;;;;;;2.78;1.08;;;;;;;25.73;40.98;99922.66;7555433;33;38385;-80
2023/09/20 09:34:58;;;;;;;2.05;1.23;;;;;;;26.10;41.61;99911.78;7554215;33;38888;-80
2023/09/20 09:39:15;;;;;;;3.60;1.25;;;;;;;27.06;39.73;99899.56;7555271;33;38729;-80
2023/09/20 09:43:58;;;;;;;2.17;1.10;;;;;;;27.42;39.58;99894.41;7555385;33;36840;-80
2023/09/20 09:48:19;;;;;;;1.75;1.20;;;;;;;27.09;38.64;99884.81;7555380;33;40008;-80
2023/09/20 09:52:40;;;;;;;1.33;1.08;;;;;;;27.28;38.56;99890.25;7555179;33;40863;-81
2023/09/20 09:56:56;;;;;;;3.92;1.20;;;;;;;27.28;37.80;99883.84;7554168;33;38022;-80
2023/09/20 10:01:15;;;;;;;2.05;1.20;;;;;;;27.91;37.39;99882.06;7555130;33;36781;-80
2023/09/20 10:05:32;;;;;;;3.67;1.48;;;;;;;28.42;37.21;99875.66;7554884;33;38364;-80
2023/09/20 10:09:52;;;;;;;3.08;1.15;;;;;;;28.35;35.89;99886.00;7554031;33;39835;-80
2023/09/20 10:14:10;;;;;;;8.00;1.62;;;;;;;28.72;35.57;99871.84;7555026;33;38737;-80
2023/09/20 10:18:51;;;;;;;3.28;1.37;;;;;;;29.05;35.83;99875.56;7554944;33;36907;-79
2023/09/20 10:23:13;;;;;;;3.45;1.35;;;;;;;29.42;33.66;99868.06;7542086;33;39905;-79
2023/09/20 10:27:32;;;;;;;4.12;1.20;;;;;;;29.49;34.06;99868.88;7554750;33;40941;-80
2023/09/20 10:31:49;;;;;;;3.42;1.12;;;;;;;29.59;32.84;99864.50;7554836;33;37796;-79
2023/09/20 10:36:06;;;;;;;2.25;1.10;;;;;;;28.94;33.92;99860.69;7554749;33;36993;-79
2023/09/20 10:40:23;;;;;;;2.25;1.00;;;;;;;29.22;34.48;99854.41;7554700;33;39906;-79
2023/09/20 10:44:42;;;;;;;3.67;1.50;;;;;;;30.23;32.50;99854.47;7554516;33;40066;-79
2023/09/20 10:48:59;;;;;;;2.00;1.23;;;;;;;30.51;32.10;99848.81;7554541;33;37702;-79
2023/09/20 10:53:22;;;;;;;2.55;1.10;;;;;;;30.20;31.93;99844.84;7554511;33;37606;-79
2023/09/20 10:57:42;;;;;;;2.55;1.25;;;;;;;30.16;32.56;99846.84;7554609;33;39129;-79
2023/09/20 11:02:17;;;;;;;2.53;1.40;;;;;;;30.67;31.74;99834.28;7554365;33;40031;-80
2023/09/20 11:06:34;;;;;;;5.07;1.27;;;;;;;30.06;32.87;99833.59;7551959;33;37956;-79
2023/09/20 11:10:50;;;;;;;4.85;1.42;;;;;;;30.55;32.05;99820.66;7554229;33;37166;-79
2023/09/20 11:15:08;;;;;;;2.70;1.10;;;;;;;30.53;31.82;99817.47;7558102;33;39325;-76
2023/09/20 11:19:25;;;;;;;3.20;1.30;;;;;;;31.04;30.82;99813.22;7555105;33;39785;-80
2023/09/20 11:23:44;;;;;;;3.22;1.30;;;;;;;30.91;31.60;99809.25;7554034;33;38642;-79
2023/09/20 11:28:00;;;;;;;1.73;1.08;;;;;;;30.95;31.54;99806.44;7552878;33;37078;-79
2023/09/20 11:32:21;;;;;;;2.65;1.10;;;;;;;30.17;32.61;99806.28;7552684;33;40125;-79
2023/09/20 11:36:40;;;;;;;2.70;1.47;;;;;;;29.89;34.39;99802.31;7552322;33;37643;-79
2023/09/20 11:40:57;;;;;;;1.30;1.00;;;;;;;29.74;33.59;99801.50;7553641;33;37019;-79
2023/09/20 11:45:16;;;;;;;1.35;1.02;;;;;;;29.94;32.05;99792.66;7553559;33;37030;-80
2023/09/20 11:49:38;;;;;;;2.78;1.02;;;;;;;29.95;33.19;99792.25;7552520;33;39371;-80
2023/09/20 11:53:55;;;;;;;2.90;1.60;;;;;;;28.86;35.31;99798.16;7553380;33;39998;-79
2023/09/20 11:58:11;;;;;;;2.83;1.42;;;;;;;29.33;34.87;99787.03;7553295;33;37953;-79
2023/09/20 12:02:28;;;;;;;3.50;1.27;;;;;;;29.52;34.57;99789.47;7553298;33;37151;-80
2023/09/20 12:06:45;;;;;;;2.45;1.00;;;;;;;30.00;32.98;99782.63;7553003;33;39135;-79
2023/09/20 12:11:01;;;;;;;1.42;1.10;;;;;;;29.11;34.47;99784.16;7553051;33;40919;-80
2023/09/20 12:15:21;;;;;;;4.35;1.23;;;;;;;28.61;34.42;99775.62;7552789;33;38080;-80
2023/09/20 12:19:37;;;;;;;2.35;1.20;;;;;;;28.54;35.44;99775.56;7552835;33;38037;-79
2023/09/20 12:23:53;;;;;;;2.05;1.20;;;;;;;29.33;34.76;99771.00;7552828;33;39329;-79
2023/09/20 12:28:10;;;;;;;3.25;1.23;;;;;;;29.27;33.32;99763.38;7552583;33;40989;-80
2023/09/20 12:32:27;;;;;;;1.67;1.08;;;;;;;28.63;34.36;99762.00;7552542;33;38499;-79
2023/09/20 12:36:45;;;;;;;5.35;1.55;;;;;;;29.03;33.45;99762.94;7552354;33;38549;-79
2023/09/20 12:41:04;;;;;;;6.18;1.27;;;;;;;29.05;33.58;99749.28;7552481;33;39986;-79
2023/09/20 12:45:22;;;;;;;1.75;0.98;;;;;;;29.56;33.11;99748.16;7552173;33;40984;-79
2023/09/20 12:49:40;;;;;;;3.45;1.25;;;;;;;29.64;31.64;99736.91;7555191;33;37968;-79
2023/09/20 12:53:57;;;;;;;3.50;1.30;;;;;;;29.72;32.19;99741.31;7555712;33;36880;-79
2023/09/20 12:58:16;;;;;;;6.15;1.20;;;;;;;29.77;32.81;99729.69;7555725;33;39464;-79
2023/09/20 13:02:32;;;;;;;1.80;1.10;;;;;;;29.76;31.48;99728.88;7555973;33;40917;-80
2023/09/20 13:06:49;;;;;;;1.55;1.10;;;;;;;30.08;31.89;99718.75;7555479;33;37623;-80
2023/09/20 13:11:10;;;;;;;5.00;0.93;;;;;;;30.96;29.91;99704.72;7555840;33;37188;-80
2023/09/20 13:15:26;;;;;;;1.17;0.90;;;;;;;31.16;28.64;99704.94;7555723;33;40083;-80
2023/09/20 13:19:43;;;;;;;3.28;1.20;;;;;;;30.50;28.48;99695.31;7555596;33;39762;-80
2023/09/20 13:24:01;;;;;;;2.00;1.20;;;;;;;31.00;28.23;99688.59;7555456;33;37970;-80
2023/09/20 13:28:17;;;;;;;2.92;0.90;;;;;;;30.99;28.08;99684.16;7555428;33;37271;-79
2023/09/20 13:32:35;;;;;;;1.75;0.90;;;;;;;31.69;27.05;99679.56;7555425;33;40182;-80
2023/09/20 13:36:52;;;;;;;5.70;1.30;;;;;;;31.13;27.74;99680.44;7555399;33;40035;-80
2023/09/20 13:41:08;;;;;;;3.80;0.93;;;;;;;31.28;28.61;99675.50;7555193;33;38620;-80
2023/09/20 13:45:26;;;;;;;1.95;0.90;;;;;;;30.88;28.11;99677.81;7555227;33;38148;-80
2023/09/20 13:49:43;;;;;;;1.50;0.90;;;;;;;30.55;28.83;99673.59;7555396;33;39914;-80
2023/09/20 13:53:59;;;;;;;3.70;1.12;;;;;;;31.27;27.99;99668.28;7555231;33;39926;-80
2023/09/20 13:58:16;;;;;;;4.32;1.25;;;;;;;31.89;26.85;99663.63;7553488;33;37966;-81
2023/09/20 14:02:32;;;;;;;4.60;0.93;;;;;;;31.71;26.49;99663.81;7555016;33;37823;-81
2023/09/20 14:06:49;;;;;;;5.28;1.08;;;;;;;31.20;28.12;99662.69;7554879;33;39417;-80
2023/09/20 14:11:09;;;;;;;2.58;1.20;;;;;;;30.54;28.94;99669.19;7554586;33;39903;-80
2023/09/20 14:15:25;;;;;;;1.42;0.80;;;;;;;29.59;29.53;99670.69;7553799;33;38050;-80
2023/09/20 14:19:43;;;;;;;2.05;1.27;;;;;;;29.42;29.83;99665.91;7554875;33;37144;-79
2023/09/20 14:24:00;;;;;;;3.60;1.20;;;;;;;30.19;28.67;99646.44;7554711;33;39443;-80
2023/09/20 14:28:16;;;;;;;3.10;0.93;;;;;;;30.66;29.01;99647.00;7554695;33;40833;-80
2023/09/20 14:32:33;;;;;;;1.62;1.20;;;;;;;31.14;27.89;99647.47;7554644;33;38554;-80
2023/09/20 14:36:49;;;;;;;1.50;0.88;;;;;;;30.45;28.53;99642.31;7554723;33;37804;-79
2023/09/20 14:41:06;;;;;;;3.30;1.15;;;;;;;30.19;28.52;99634.41;7554675;33;40215;-80
2023/09/20 14:45:26;;;;;;;1.95;0.82;;;;;;;30.40;28.03;99648.38;7554534;33;39984;-80
2023/09/20 14:49:42;;;;;;;6.18;1.20;;;;;;;30.23;27.31;99644.41;7554536;33;37908;-81
2023/09/20 14:53:59;;;;;;;6.50;1.33;;;;;;;30.38;27.53;99635.94;7554500;33;37036;-79
2023/09/20 14:58:17;;;;;;;2.00;1.40;;;;;;;30.00;28.70;99627.28;7554460;33;39405;-80
2023/09/20 15:02:34;;;;;;;3.47;0.85;;;;;;;30.42;27.33;99631.09;7554407;33;39994;-79
2023/09/20 15:06:51;;;;;;;0.80;0.80;;;;;;;30.03;28.01;99621.63;7554013;33;38709;-79
2023/09/20 15:11:10;;;;;;;2.00;0.85;;;;;;;29.78;28.12;99632.97;7553345;33;37329;-80
2023/09/20 15:15:27;;;;;;;2.65;1.17;;;;;;;30.57;28.32;99618.53;7554332;33;38326;-80
2023/09/20 15:19:44;;;;;;;6.28;1.15;;;;;;;30.63;28.68;99616.88;7554108;33;40074;-80
2023/09/20 15:24:01;;;;;;;2.87;1.10;;;;;;;30.67;28.46;99616.88;7554047;33;38640;-79
2023/09/20 15:28:18;;;;;;;2.17;1.00;;;;;;;30.36;29.11;99619.47;7553909;33;37847;-80
2023/09/20 15:32:34;;;;;;;1.45;0.70;;;;;;;30.46;29.17;99618.59;7553853;33;39316;-79
2023/09/20 15:36:51;;;;;;;1.75;1.10;;;;;;;30.67;27.64;99611.25;7553740;33;39710;-79
2023/09/20 15:41:09;;;;;;;3.83;1.10;;;;;;;30.81;27.65;99610.31;7553596;33;38615;-79
2023/09/20 15:45:27;;;;;;;1.35;0.80;;;;;;;30.81;27.56;99597.06;7553543;33;35145;-79
2023/09/20 15:49:44;;;;;;;1.95;1.00;;;;;;;30.63;29.65;99602.81;7553383;33;37566;-79
2023/09/20 15:54:01;;;;;;;6.68;1.40;;;;;;;31.25;27.65;99598.28;7553495;33;40724;-79
2023/09/20 15:58:17;;;;;;;2.40;1.00;;;;;;;33.51;23.64;99593.44;7553297;33;37873;-79
2023/09/20 16:02:35;;;;;;;2.08;0.90;;;;;;;32.62;24.81;99590.19;7553256;33;37868;-79
2023/09/20 16:06:52;;;;;;;4.07;1.00;;;;;;;33.55;24.06;99580.06;7553222;33;39422;-79
2023/09/20 16:11:10;;;;;;;1.83;1.20;;;;;;;36.36;21.29;99581.47;7552938;33;40822;-79
2023/09/20 16:15:27;;;;;;;0.93;0.88;;;;;;;37.25;18.82;99574.87;7552985;33;37812;-79
2023/09/20 16:19:43;;;;;;;5.03;1.75;;;;;;;37.02;18.56;99576.06;7552869;33;37153;-80
2023/09/20 16:24:00;;;;;;;4.25;1.52;;;;;;;37.72;18.62;99576.84;7555862;33;39531;-80
2023/09/20 16:28:16;;;;;;;3.92;1.48;;;;;;;37.73;18.68;99574.78;7556009;33;39943;-79
2023/09/20 16:32:33;;;;;;;3.17;1.50;;;;;;;36.94;21.13;99575.50;7556020;33;37804;-79
2023/09/20 16:36:50;;;;;;;5.03;1.30;;;;;;;35.72;23.12;99576.50;7556007;33;38116;-79
2023/09/20 16:41:09;;;;;;;2.80;1.30;;;;;;;34.12;25.62;99575.25;7556062;33;39427;-79
2023/09/20 16:45:25;;;;;;;3.25;1.10;;;;;;;32.97;26.37;99588.78;7555965;33;40699;-79
2023/09/20 16:49:42;;;;;;;1.10;1.00;;;;;;;31.70;28.81;99577.72;7555664;33;38790;-79
2023/09/20 16:53:59;;;;;;;4.25;1.10;;;;;;;30.92;30.07;99580.06;7556016;33;36817;-79
2023/09/20 16:58:15;;;;;;;1.27;1.10;;;;;;;30.20;28.80;99579.78;7555809;33;40139;-79
2023/09/20 17:02:33;;;;;;;3.08;1.33;;;;;;;29.68;28.81;99584.00;7555687;33;40876;-78
2023/09/20 17:06:50;;;;;;;3.35;0.70;;;;;;;29.36;29.36;99584.13;7555360;33;37889;-78
2023/09/20 17:11:09;;;;;;;3.08;1.02;;;;;;;28.94;29.79;99597.78;7555565;33;37187;-79
2023/09/20 17:15:28;;;;;;;4.62;0.98;;;;;;;28.45;31.19;99608.53;7555619;33;39412;-78
2023/09/20 17:19:44;;;;;;;2.58;1.08;;;;;;;27.99;33.30;99616.81;7555541;33;39955;-78
2023/09/20 17:24:02;;;;;;;2.28;0.73;;;;;;;27.47;34.06;99619.72;7555530;33;38583;-78
2023/09/20 17:28:18;;;;;;;2.30;1.00;;;;;;;27.24;32.84;99617.16;7555357;33;37285;-78
2023/09/20 17:32:35;;;;;;;2.17;1.00;;;;;;;27.19;33.09;99609.91;7554837;33;39119;-78
2023/09/20 17:36:52;;;;;;;2.75;1.10;;;;;;;26.94;33.41;99621.72;7555434;33;39970;-78
2023/09/20 17:41:16;;;;;;;3.17;1.02;;;;;;;26.93;33.56;99625.72;7555420;33;38571;-78
2023/09/20 17:45:38;;;;;;;4.32;2.08;;;;;;;26.58;34.61;99632.56;7555328;33;37118;-78
2023/09/20 17:49:54;;;;;;;5.82;2.35;;;;;;;26.32;35.82;99633.50;7555130;33;40016;-78
2023/09/20 17:54:12;;;;;;;2.72;1.20;;;;;;;26.24;36.47;99635.37;7555260;33;39950;-78
2023/09/20 17:58:30;;;;;;;4.65;1.10;;;;;;;25.89;37.59;99637.72;7554989;33;37977;-78
2023/09/20 18:02:47;;;;;;;4.72;1.30;;;;;;;25.56;37.91;99639.25;7555126;33;36279;-78
2023/09/20 18:07:03;;;;;;;2.80;0.82;;;;;;;25.41;37.89;99644.66;7554886;33;41018;-78
2023/09/20 18:11:22;;;;;;;2.87;1.30;;;;;;;25.29;37.80;99648.44;7554874;33;40071;-79
2023/09/20 18:15:38;;;;;;;5.15;1.70;;;;;;;25.04;38.57;99641.63;7554906;33;38674;-78
2023/09/20 18:19:58;;;;;;;3.97;1.42;;;;;;;25.01;38.74;99653.53;7554920;33;37769;-78
2023/09/20 18:24:15;;;;;;;1.27;0.90;;;;;;;24.98;38.60;99648.72;7554983;33;39916;-78
2023/09/20 18:28:32;;;;;;;5.00;1.12;;;;;;;24.80;38.76;99651.19;7554753;33;40607;-78
2023/09/20 18:32:51;;;;;;;4.65;1.20;;;;;;;24.68;38.94;99653.00;7554677;33;37784;-78
2023/09/20 18:37:08;;;;;;;7.72;1.17;;;;;;;24.54;39.21;99659.13;7554258;33;37131;-79
2023/09/20 18:41:25;;;;;;;2.28;0.80;;;;;;;24.80;38.47;99670.69;7554315;33;39143;-78
2023/09/20 18:45:44;;;;;;;3.20;1.10;;;;;;;24.33;39.17;99665.03;7554754;33;40014;-78
2023/09/20 18:50:03;;;;;;;3.25;2.40;;;;;;;24.40;39.06;99669.12;7554081;33;38511;-79
2023/09/20 18:54:19;;;;;;;2.75;2.25;;;;;;;24.25;40.22;99668.88;7554442;33;37004;-78
2023/09/20 18:58:36;;;;;;;3.40;1.20;;;;;;;24.12;40.66;99670.97;7554215;33;39583;-78
2023/09/20 19:02:54;;;;;;;1.87;0.95;;;;;;;24.12;40.58;99670.19;7554211;33;40825;-77
2023/09/20 19:07:11;;;;;;;3.10;1.23;;;;;;;24.06;41.39;99666.88;7554047;33;38013;-77
2023/09/20 19:11:27;;;;;;;3.15;1.23;;;;;;;23.95;42.68;99665.84;7554145;33;37811;-78
2023/09/20 19:15:46;;;;;;;4.43;1.25;;;;;;;23.72;43.49;99669.31;7554103;33;39449;-79
2023/09/20 19:20:12;;;;;;;1.80;1.02;;;;;;;23.33;43.93;99658.06;7553929;33;42123;-79
2023/09/20 19:24:33;;;;;;;1.33;0.85;;;;;;;23.40;43.22;99663.00;7553913;33;38697;-80
2023/09/20 19:28:50;;;;;;;6.90;1.20;;;;;;;23.46;42.64;99667.13;7545084;33;38094;-79
2023/09/20 19:33:07;;;;;;;4.47;1.17;;;;;;;23.30;43.31;99663.56;7553512;33;39183;-78
2023/09/20 19:37:25;;;;;;;3.70;1.33;;;;;;;23.34;43.41;99664.47;7545451;33;40909;-79
2023/09/20 19:41:42;;;;;;;2.83;1.30;;;;;;;23.28;43.43;99666.69;7528302;33;38738;-78
2023/09/20 19:46:08;;;;;;;4.80;1.37;;;;;;;23.10;45.34;99665.47;7528046;33;35211;-78
2023/09/20 19:50:26;;;;;;;6.35;1.23;;;;;;;23.18;45.06;99668.06;7526834;33;39332;-78
2023/09/20 19:54:43;;;;;;;1.33;1.00;;;;;;;23.07;44.65;99661.41;7527794;33;39625;-78
2023/09/20 19:59:00;;;;;;;3.10;1.00;;;;;;;23.01;44.23;99662.84;7512836;33;1312479;-78
2023/09/20 20:03:16;;;;;;;3.92;1.40;;;;;;;23.02;44.24;99658.87;7558923;33;37804;-78
2023/09/20 20:07:33;;;;;;;2.60;1.23;;;;;;;22.99;44.29;99654.03;7559808;33;40057;-79
2023/09/20 20:11:49;;;;;;;4.72;1.10;;;;;;;23.02;44.62;99661.66;7560037;33;40000;-79
2023/09/20 20:16:13;;;;;;;1.92;1.12;;;;;;;23.11;44.25;99654.00;7553075;33;37910;-78
2023/09/20 20:20:37;;;;;;;2.22;1.25;;;;;;;22.98;44.34;99650.47;7559388;33;36710;-77
2023/09/20 20:24:59;;;;;;;3.22;1.35;;;;;;;22.86;44.33;99650.53;7560405;33;39345;-77
2023/09/20 20:29:17;;;;;;;3.05;1.27;;;;;;;22.91;44.13;99655.03;7560092;33;39975;-77
2023/09/20 20:33:37;;;;;;;1.92;1.00;;;;;;;22.90;44.08;99643.09;7560038;33;37881;-77
2023/09/20 20:37:55;;;;;;;3.37;1.65;;;;;;;22.99;43.80;99654.03;7558902;33;37822;-77
2023/09/20 20:42:12;;;;;;;4.12;1.58;;;;;;;22.84;45.38;99645.34;7559924;33;39785;-77
2023/09/20 20:46:30;;;;;;;3.15;1.30;;;;;;;22.30;47.34;99648.66;7559783;33;40305;-76
2023/09/20 20:50:47;;;;;;;2.12;1.30;;;;;;;22.15;48.41;99654.97;7559564;33;37698;-77
2023/09/20 20:55:05;;;;;;;8.30;1.30;;;;;;;22.11;48.67;99654.84;7559478;33;37194;-76